Balmoral — GRPM — position and weather

sailwx.info

Track history (hours):
 
Tides and Currents Weather Stations Pressure Air Temp Water Temp Dewpoint Dewpoint Depression Visibility Wind Speed Wind Dir Waves Ship Positions

Balmoral

Operator: Waverly Excursions Ltd

Last reported at 2017-Oct-15 20:55 UTC. Time now 2017-Oct-23 02:13 UTC.
Position N 55°54' W 004°55'.

Length 73 m; draft 2 m.

Type: Ship. MMSI: 232001540.

Date/timePositionNaut miles runAvg speedWind from/ knotsBaromVisibWave heightAir tempDewpointWater temp
2017-Oct-15 20:55N 55°54' W 004°55'614.7
2017-Oct-15 20:31N 55°48' W 004°57'714.6
2017-Oct-15 20:00N 55°41' W 004°59'714.3
2017-Oct-15 19:29N 55°33' W 005°00'4013.1
2017-Oct-15 16:26N 54°56' W 005°25'511.4
2017-Oct-15 16:00N 54°52' W 005°29'612.7
2017-Oct-15 15:30N 54°46' W 005°34'611.1
2017-Oct-15 15:00N 54°41' W 005°39'1 0.6
2017-Oct-15 14:00N 54°41' W 005°39'0 0.0
2017-Oct-15 13:27N 54°41' W 005°39'0 0.0
2017-Oct-15 13:00N 54°41' W 005°39'0 0.0
2017-Oct-15 12:30N 54°41' W 005°39'0 0.0
2017-Oct-15 12:00N 54°41' W 005°39'0 0.0
2017-Oct-15 11:30N 54°41' W 005°39'0 0.0
2017-Oct-15 11:00N 54°41' W 005°39'0 0.0
2017-Oct-15 10:30N 54°41' W 005°39'0 0.0
2017-Oct-15 10:00N 54°41' W 005°39'0 0.0
2017-Oct-15 09:30N 54°41' W 005°39'0 0.0
2017-Oct-15 09:00N 54°41' W 005°39'0 0.0
2017-Oct-15 08:30N 54°41' W 005°39'0 0.0
2017-Oct-15 08:00N 54°41' W 005°39'0 0.0
2017-Oct-15 07:30N 54°41' W 005°39'0 0.0
2017-Oct-15 07:00N 54°41' W 005°39'0 0.0
2017-Oct-15 06:30N 54°41' W 005°39'0 0.0
2017-Oct-15 06:00N 54°41' W 005°39'0 0.0
2017-Oct-15 05:30N 54°41' W 005°39'0 0.0
2017-Oct-15 05:00N 54°41' W 005°39'0 0.0
2017-Oct-15 04:30N 54°41' W 005°39'0 0.0
2017-Oct-15 04:00N 54°41' W 005°39'0 0.0
2017-Oct-15 03:30N 54°41' W 005°39'0 0.0
2017-Oct-15 02:54N 54°41' W 005°39'0 0.0
2017-Oct-15 02:30N 54°41' W 005°39'0 0.0
2017-Oct-15 02:00N 54°41' W 005°39'0 0.0
2017-Oct-15 01:30N 54°41' W 005°39'0 0.0
2017-Oct-15 01:00N 54°41' W 005°39'0 0.0
2017-Oct-15 00:30N 54°41' W 005°39'0 0.0
2017-Oct-15 00:00N 54°41' W 005°39'0 0.0
2017-Oct-14 23:30N 54°41' W 005°39'0 0.0
2017-Oct-14 23:00N 54°41' W 005°39'0 0.0
2017-Oct-14 22:30N 54°41' W 005°39'0 0.0
2017-Oct-14 22:00N 54°41' W 005°39'0 0.0
2017-Oct-14 21:30N 54°41' W 005°39'1 2.3
2017-Oct-14 21:00N 54°42' W 005°39'611.9
2017-Oct-14 20:31N 54°43' W 005°29'713.4
2017-Oct-14 20:01N 54°37' W 005°24'713.4
2017-Oct-14 19:31N 54°31' W 005°20'612.7
2017-Oct-14 19:00N 54°25' W 005°18'612.0
2017-Oct-14 18:30N 54°20' W 005°24'612.1
2017-Oct-14 18:00N 54°15' W 005°31'612.4
2017-Oct-14 17:30N 54°10' W 005°37'713.1
2017-Oct-14 17:00N 54°05' W 005°44'713.4
2017-Oct-14 16:31N 53°59' W 005°50'713.7
2017-Oct-14 16:01N 53°53' W 005°54'130 2.9
2017-Oct-12 18:20N 51°44' W 005°26'411.0
2017-Oct-12 18:00N 51°40' W 005°26'612.3
2017-Oct-12 17:30N 51°34' W 005°28'712.8
2017-Oct-12 16:57N 51°27' W 005°31'5913.1
2017-Oct-12 12:27N 50°29' W 005°50'812.8
2017-Oct-12 11:50N 50°22' W 005°52'412.8
2017-Oct-12 11:30N 50°17' W 005°52'1512.6
2017-Oct-12 10:20N 50°03' W 005°51'3010.8
2017-Oct-12 07:33N 49°58' W 005°05'1312.6
2017-Oct-12 06:31N 50°05' W 004°48'212.5
2017-Oct-12 06:21N 50°06' W 004°45'412.2
2017-Oct-12 06:00N 50°08' W 004°39'612.1
2017-Oct-12 05:29N 50°09' W 004°29'711.9
2017-Oct-12 04:56N 50°09' W 004°19'511.1
2017-Oct-12 04:29N 50°10' W 004°11'1211.2
2017-Oct-12 03:23N 50°10' W 003°52'512.2
2017-Oct-12 03:00N 50°10' W 003°45'712.5
2017-Oct-12 02:29N 50°12' W 003°35'612.7
2017-Oct-12 02:00N 50°15' W 003°27'612.6
2017-Oct-12 01:30N 50°20' W 003°21'612.0
2017-Oct-12 01:00N 50°25' W 003°15'611.4
2017-Oct-12 00:30N 50°29' W 003°10'510.3
2017-Oct-12 00:00N 50°31' W 003°02'510.1
2017-Oct-11 23:30N 50°31' W 002°54'5 9.5
2017-Oct-11 22:59N 50°31' W 002°46'7 7.9
2017-Oct-11 22:06N 50°31' W 002°35'1 7.4
2017-Oct-11 21:59N 50°30' W 002°34'  
2017-Oct-09 15:14N 50°33' W 001°58'417.3
2017-Oct-09 15:00N 50°33' W 001°51'2416.3
2017-Oct-09 13:32N 50°32' W 001°14'016.0
2017-Oct-09 13:30N 50°32' W 001°13'814.9
2017-Oct-09 12:59N 50°32' W 001°01'2313.2
2017-Oct-09 11:17N 50°32' W 000°25'511.8
2017-Oct-09 10:50N 50°32' W 000°17'511.7
2017-Oct-09 10:25N 50°32' W 000°10'511.9
2017-Oct-09 10:00N 50°32' W 000°02'612.3
2017-Oct-09 09:30N 50°34' E 000°08'712.9
2017-Oct-09 09:00N 50°36' E 000°17'714.0
2017-Oct-09 08:31N 50°37' E 000°28'714.7
2017-Oct-09 08:01N 50°40' E 000°38'815.7
2017-Oct-09 07:31N 50°45' E 000°49'916.0
2017-Oct-09 06:58N 50°50' E 000°60'815.9
2017-Oct-09 06:28N 50°55' E 001°10'715.4
2017-Oct-09 06:00N 50°59' E 001°18'714.7
2017-Oct-09 05:30N 51°04' E 001°27'713.5
2017-Oct-09 05:00N 51°09' E 001°35'611.5
2017-Oct-09 04:30N 51°14' E 001°38'713.4
2017-Oct-09 04:00N 51°21' E 001°35'714.2
2017-Oct-09 03:31N 51°26' E 001°28'814.8
2017-Oct-09 03:00N 51°29' E 001°17'714.8
2017-Oct-09 02:30N 51°29' E 001°05'44 7.3
2017-Oct-08 20:30N 51°30' W 000°05'39 7.0
2017-Oct-08 15:00N 51°26' E 000°57'510.3
2017-Oct-08 14:30N 51°22' E 001°02'0 0.0
2017-Oct-08 13:54N 51°22' E 001°02'411.5
2017-Oct-08 13:30N 51°26' E 000°58'39 8.2
2017-Oct-08 08:42N 51°30' W 000°05'0 0.0
2017-Oct-08 03:40N 51°30' W 000°05'0 0.0
2017-Oct-07 09:24N 51°30' W 000°05'0 0.2
2017-Oct-07 09:00N 51°30' W 000°05'0 0.0
2017-Oct-07 08:26N 51°30' W 000°05'0 0.0
2017-Oct-07 02:45N 51°30' W 000°05'0 0.0
2017-Oct-07 02:28N 51°30' W 000°05'0 0.0
2017-Oct-07 01:58N 51°30' W 000°05'38 3.2
2017-Oct-06 13:57N 51°29' E 000°57'2 4.1
2017-Oct-06 13:30N 51°28' E 000°60'  
Track history (hours):
 
Tides and Currents Weather Stations Pressure Air Temp Water Temp Dewpoint Dewpoint Depression Visibility Wind Speed Wind Dir Waves Ship Positions

Balmoral

Operator: Waverly Excursions Ltd

Last reported at 2017-Oct-15 20:55 UTC. Time now 2017-Oct-23 02:13 UTC.
Position N 55°54' W 004°55'.

Length 73 m; draft 2 m.

Type: Ship. MMSI: 232001540.

Date/timePositionNaut miles runAvg speedWind from/ knotsBaromVisibWave heightAir tempDewpointWater temp
2017-Oct-15 20:55N 55°54' W 004°55'614.7
2017-Oct-15 20:31N 55°48' W 004°57'714.6
2017-Oct-15 20:00N 55°41' W 004°59'714.3
2017-Oct-15 19:29N 55°33' W 005°00'4013.1
2017-Oct-15 16:26N 54°56' W 005°25'511.4
2017-Oct-15 16:00N 54°52' W 005°29'612.7
2017-Oct-15 15:30N 54°46' W 005°34'611.1
2017-Oct-15 15:00N 54°41' W 005°39'1 0.6
2017-Oct-15 14:00N 54°41' W 005°39'0 0.0
2017-Oct-15 13:27N 54°41' W 005°39'0 0.0
2017-Oct-15 13:00N 54°41' W 005°39'0 0.0
2017-Oct-15 12:30N 54°41' W 005°39'0 0.0
2017-Oct-15 12:00N 54°41' W 005°39'0 0.0
2017-Oct-15 11:30N 54°41' W 005°39'0 0.0
2017-Oct-15 11:00N 54°41' W 005°39'0 0.0
2017-Oct-15 10:30N 54°41' W 005°39'0 0.0
2017-Oct-15 10:00N 54°41' W 005°39'0 0.0
2017-Oct-15 09:30N 54°41' W 005°39'0 0.0
2017-Oct-15 09:00N 54°41' W 005°39'0 0.0
2017-Oct-15 08:30N 54°41' W 005°39'0 0.0
2017-Oct-15 08:00N 54°41' W 005°39'0 0.0
2017-Oct-15 07:30N 54°41' W 005°39'0 0.0
2017-Oct-15 07:00N 54°41' W 005°39'0 0.0
2017-Oct-15 06:30N 54°41' W 005°39'0 0.0
2017-Oct-15 06:00N 54°41' W 005°39'0 0.0
2017-Oct-15 05:30N 54°41' W 005°39'0 0.0
2017-Oct-15 05:00N 54°41' W 005°39'0 0.0
2017-Oct-15 04:30N 54°41' W 005°39'0 0.0
2017-Oct-15 04:00N 54°41' W 005°39'0 0.0
2017-Oct-15 03:30N 54°41' W 005°39'0 0.0
2017-Oct-15 02:54N 54°41' W 005°39'0 0.0
2017-Oct-15 02:30N 54°41' W 005°39'0 0.0
2017-Oct-15 02:00N 54°41' W 005°39'0 0.0
2017-Oct-15 01:30N 54°41' W 005°39'0 0.0
2017-Oct-15 01:00N 54°41' W 005°39'0 0.0
2017-Oct-15 00:30N 54°41' W 005°39'0 0.0
2017-Oct-15 00:00N 54°41' W 005°39'0 0.0
2017-Oct-14 23:30N 54°41' W 005°39'0 0.0
2017-Oct-14 23:00N 54°41' W 005°39'0 0.0
2017-Oct-14 22:30N 54°41' W 005°39'0 0.0
2017-Oct-14 22:00N 54°41' W 005°39'0 0.0
2017-Oct-14 21:30N 54°41' W 005°39'1 2.3
2017-Oct-14 21:00N 54°42' W 005°39'611.9
2017-Oct-14 20:31N 54°43' W 005°29'713.4
2017-Oct-14 20:01N 54°37' W 005°24'713.4
2017-Oct-14 19:31N 54°31' W 005°20'612.7
2017-Oct-14 19:00N 54°25' W 005°18'612.0
2017-Oct-14 18:30N 54°20' W 005°24'612.1
2017-Oct-14 18:00N 54°15' W 005°31'612.4
2017-Oct-14 17:30N 54°10' W 005°37'713.1
2017-Oct-14 17:00N 54°05' W 005°44'713.4
2017-Oct-14 16:31N 53°59' W 005°50'713.7
2017-Oct-14 16:01N 53°53' W 005°54'130 2.9
2017-Oct-12 18:20N 51°44' W 005°26'411.0
2017-Oct-12 18:00N 51°40' W 005°26'612.3
2017-Oct-12 17:30N 51°34' W 005°28'712.8
2017-Oct-12 16:57N 51°27' W 005°31'5913.1
2017-Oct-12 12:27N 50°29' W 005°50'812.8
2017-Oct-12 11:50N 50°22' W 005°52'412.8
2017-Oct-12 11:30N 50°17' W 005°52'1512.6
2017-Oct-12 10:20N 50°03' W 005°51'3010.8
2017-Oct-12 07:33N 49°58' W 005°05'1312.6
2017-Oct-12 06:31N 50°05' W 004°48'212.5
2017-Oct-12 06:21N 50°06' W 004°45'412.2
2017-Oct-12 06:00N 50°08' W 004°39'612.1
2017-Oct-12 05:29N 50°09' W 004°29'711.9
2017-Oct-12 04:56N 50°09' W 004°19'511.1
2017-Oct-12 04:29N 50°10' W 004°11'1211.2
2017-Oct-12 03:23N 50°10' W 003°52'512.2
2017-Oct-12 03:00N 50°10' W 003°45'712.5
2017-Oct-12 02:29N 50°12' W 003°35'612.7
2017-Oct-12 02:00N 50°15' W 003°27'612.6
2017-Oct-12 01:30N 50°20' W 003°21'612.0
2017-Oct-12 01:00N 50°25' W 003°15'611.4
2017-Oct-12 00:30N 50°29' W 003°10'510.3
2017-Oct-12 00:00N 50°31' W 003°02'510.1
2017-Oct-11 23:30N 50°31' W 002°54'5 9.5
2017-Oct-11 22:59N 50°31' W 002°46'7 7.9
2017-Oct-11 22:06N 50°31' W 002°35'1 7.4
2017-Oct-11 21:59N 50°30' W 002°34'  
2017-Oct-09 15:14N 50°33' W 001°58'417.3
2017-Oct-09 15:00N 50°33' W 001°51'2416.3
2017-Oct-09 13:32N 50°32' W 001°14'016.0
2017-Oct-09 13:30N 50°32' W 001°13'814.9
2017-Oct-09 12:59N 50°32' W 001°01'2313.2
2017-Oct-09 11:17N 50°32' W 000°25'511.8
2017-Oct-09 10:50N 50°32' W 000°17'511.7
2017-Oct-09 10:25N 50°32' W 000°10'511.9
2017-Oct-09 10:00N 50°32' W 000°02'612.3
2017-Oct-09 09:30N 50°34' E 000°08'712.9
2017-Oct-09 09:00N 50°36' E 000°17'714.0
2017-Oct-09 08:31N 50°37' E 000°28'714.7
2017-Oct-09 08:01N 50°40' E 000°38'815.7
2017-Oct-09 07:31N 50°45' E 000°49'916.0
2017-Oct-09 06:58N 50°50' E 000°60'815.9
2017-Oct-09 06:28N 50°55' E 001°10'715.4
2017-Oct-09 06:00N 50°59' E 001°18'714.7
2017-Oct-09 05:30N 51°04' E 001°27'713.5
2017-Oct-09 05:00N 51°09' E 001°35'611.5
2017-Oct-09 04:30N 51°14' E 001°38'713.4
2017-Oct-09 04:00N 51°21' E 001°35'714.2
2017-Oct-09 03:31N 51°26' E 001°28'814.8
2017-Oct-09 03:00N 51°29' E 001°17'714.8
2017-Oct-09 02:30N 51°29' E 001°05'44 7.3
2017-Oct-08 20:30N 51°30' W 000°05'39 7.0
2017-Oct-08 15:00N 51°26' E 000°57'510.3
2017-Oct-08 14:30N 51°22' E 001°02'0 0.0
2017-Oct-08 13:54N 51°22' E 001°02'411.5
2017-Oct-08 13:30N 51°26' E 000°58'39 8.2
2017-Oct-08 08:42N 51°30' W 000°05'0 0.0
2017-Oct-08 03:40N 51°30' W 000°05'0 0.0
2017-Oct-07 09:24N 51°30' W 000°05'0 0.2
2017-Oct-07 09:00N 51°30' W 000°05'0 0.0
2017-Oct-07 08:26N 51°30' W 000°05'0 0.0
2017-Oct-07 02:45N 51°30' W 000°05'0 0.0
2017-Oct-07 02:28N 51°30' W 000°05'0 0.0
2017-Oct-07 01:58N 51°30' W 000°05'38 3.2
2017-Oct-06 13:57N 51°29' E 000°57'2 4.1
2017-Oct-06 13:30N 51°28' E 000°60'  

Dump ship's entire track history